DOF/210801 0108Z

 METAR AND TAF INFORMATION
METAR FOR LPFR
ADDS - METARS form results

(0108 UTC 01 August 2021)
Data provider http://aviationweather.gov/metar/data/
 
METAR text: LPFR 010100Z 33010KT CAVOK 19/08 Q1018
Conditions at: LPFR (FARO , PT) observed 0100 UTC 01 August 2021
Temperature: 19.0°C (66°F)
Dewpoint: 8.0°C (46°F) [RH = 49%]
Pressure (altimeter): 30.06 inches Hg (1018.0 mb)
Winds: from the NNW (330 degrees) at 12 MPH (10 knots; 5.1 m/s)
Visibility: 6 or more miles (10+ km)
Ceiling: ceiling and visibility are OK
Clouds: unknown
Weather: no significant weather observed at this time

METAR text: LPFR 010030Z 33008KT 300V020 CAVOK 19/09 Q1019
Conditions at: LPFR (FARO , PT) observed 0030 UTC 01 August 2021
Temperature: 19.0°C (66°F)
Dewpoint: 9.0°C (48°F) [RH = 52%]
Pressure (altimeter): 30.09 inches Hg (1019.0 mb)
Winds: from the NNW (330 degrees) at 9 MPH (8 knots; 4.1 m/s)
Visibility: 6 or more miles (10+ km)
Ceiling: ceiling and visibility are OK
Clouds: unknown
Weather: no significant weather observed at this time

Forecast for: LPFR (FARO , PT)
Text: TAF LPFR 312300Z 0100/0124 30010KT CAVOK
Forecast period: 0000 UTC 01 August 2021 to 0000 UTC 02 August 2021
Forecast type: FROM: standard forecast or significant change
Winds: from the WNW (300 degrees) at 12 MPH (10 knots; 5.1 m/s)
Visibility: 6 or more miles (10+ km)
Ceiling: unknown
Clouds: missing
Weather: NSW  (no significant weather)
Text: TEMPO 0112/0117 VRB05KT
Forecast period: 1200 to 1700 UTC 01 August 2021
Forecast type: TEMPORARY: The following changes expected for less than half the time period
Winds: variable direction winds at 6 MPH (5 knots; 2.6 m/s)
Visibility: missing
Ceiling: unknown
Clouds: missing
Weather: no significant weather forecast for this period

 AIRPORT MAP

 RUNWAY INFORMATION
Runway 10 Runway length 8169 ft Runway width 148 ft
Runway elevation 24 ft Runway displaced threshold 148 ft Runway heading 100
Runway 28 Runway length 8169 ft Runway width 148 ft
Runway elevation 18 ft Runway displaced threshold 148 ft Runway heading 280

 AIRPORT FREQUENCIES
Type APP Name APP Frequency 119.4 MHZ
Type ATIS Name ATIS Frequency 124.2 MHZ
Type GND Name GND Frequency 118.575 MHZ
Type TWR Name TWR Frequency 118.2 MHZ

 AIRPORT NEAR NAVIGATION AIDS
Type NDB Name Faro Frequency 332 KHZ
Type VOR-DME Name Faro Frequency 112800 KHZ







No Copyright © 2021 Mickey Virtual Airlines - You can copy whatever you want, but only one can be the original.

Powered by Virtual Airlines Manager